createdAt,value
2023-05-20T00:00:01.117Z,1031.97
2023-05-20T00:10:01.192Z,1032.01
2023-05-20T00:20:01.144Z,1031.98
2023-05-20T00:40:01.206Z,1031.97
2023-05-20T00:50:01.173Z,1032.01
2023-05-20T01:00:01.143Z,1031.99
2023-05-20T01:10:01.140Z,1031.92
2023-05-20T01:20:01.215Z,1031.85
2023-05-20T01:30:01.208Z,1031.81
2023-05-20T01:40:01.188Z,1031.80
2023-05-20T01:50:01.252Z,1031.67
2023-05-20T02:00:01.143Z,1031.65
2023-05-20T02:10:01.202Z,1031.67
2023-05-20T02:20:01.153Z,1031.54
2023-05-20T02:30:01.252Z,1031.60
2023-05-20T02:40:01.164Z,1031.57
2023-05-20T02:50:01.182Z,1031.69
2023-05-20T03:00:01.176Z,1031.65
2023-05-20T03:10:01.194Z,1031.70
2023-05-20T03:20:01.148Z,1031.81
2023-05-20T03:30:01.188Z,1031.80
2023-05-20T03:40:01.129Z,1031.83
2023-05-20T03:50:01.152Z,1031.88
2023-05-20T04:00:01.186Z,1031.91
2023-05-20T04:10:01.156Z,1031.95
2023-05-20T04:20:01.148Z,1031.76
2023-05-20T04:30:01.178Z,1031.77
2023-05-20T04:40:01.135Z,1031.81
2023-05-20T04:50:01.155Z,1031.88
2023-05-20T05:00:01.169Z,1031.80
2023-05-20T05:10:01.236Z,1031.80
2023-05-20T05:20:01.199Z,1031.72
2023-05-20T05:30:01.135Z,1031.77
2023-05-20T05:40:01.218Z,1031.74
2023-05-20T05:50:01.229Z,1031.69
2023-05-20T06:00:01.109Z,1031.61
2023-05-20T06:10:01.124Z,1031.56
2023-05-20T06:20:01.172Z,1031.50
2023-05-20T06:30:01.172Z,1031.54
2023-05-20T06:40:01.182Z,1031.56
2023-05-20T06:50:01.172Z,1031.60
2023-05-20T07:00:01.180Z,1031.60
2023-05-20T07:10:01.167Z,1031.65
2023-05-20T07:20:01.186Z,1031.59
2023-05-20T07:30:01.127Z,1031.45
2023-05-20T07:40:01.139Z,1031.29
2023-05-20T07:50:01.201Z,1031.27
2023-05-20T08:00:00.380Z,1031.08
2023-05-20T08:10:00.430Z,1031.05
2023-05-20T08:20:01.166Z,1031.06
2023-05-20T08:30:01.190Z,1031.00
2023-05-20T08:40:01.170Z,1030.81
2023-05-20T08:50:01.189Z,1030.81
2023-05-20T09:00:01.152Z,1030.78
2023-05-20T09:10:01.182Z,1030.83
2023-05-20T09:20:01.211Z,1030.85
2023-05-20T09:30:01.206Z,1030.71
2023-05-20T09:40:01.119Z,1030.68
2023-05-20T09:50:01.167Z,1030.74
2023-05-20T10:00:01.195Z,1030.68
2023-05-20T10:10:01.171Z,1030.66
2023-05-20T10:20:01.223Z,1030.61
2023-05-20T10:30:01.219Z,1030.64
2023-05-20T10:40:01.163Z,1030.43
2023-05-20T10:50:01.159Z,1030.27
2023-05-20T11:00:01.173Z,1030.18
2023-05-20T11:10:01.139Z,1030.07
2023-05-20T11:20:01.338Z,1029.97
2023-05-20T11:30:01.225Z,1029.83
2023-05-20T11:40:01.124Z,1029.89
2023-05-20T11:50:01.207Z,1029.80
2023-05-20T12:00:01.179Z,1029.82
2023-05-20T12:10:01.190Z,1029.53
2023-05-20T12:20:01.172Z,1029.46
2023-05-20T12:30:01.216Z,1029.33
2023-05-20T12:40:01.150Z,1029.25
2023-05-20T12:50:01.160Z,1029.12
2023-05-20T13:00:01.171Z,1028.98
2023-05-20T13:10:01.204Z,1028.83
2023-05-20T13:20:01.142Z,1028.61
2023-05-20T13:30:01.215Z,1028.59
2023-05-20T13:40:01.129Z,1028.45
2023-05-20T13:50:02.952Z,1028.37
2023-05-20T14:00:01.197Z,1028.25
2023-05-20T14:10:01.149Z,1028.21
2023-05-20T14:20:01.139Z,1028.05
2023-05-20T14:30:01.162Z,1028.00
2023-05-20T14:40:01.117Z,1027.90
2023-05-20T14:50:01.163Z,1027.70
2023-05-20T15:00:01.193Z,1027.79
2023-05-20T15:10:01.164Z,1027.58
2023-05-20T15:20:01.194Z,1027.47
2023-05-20T15:30:01.209Z,1027.52
2023-05-20T15:40:01.180Z,1027.36
2023-05-20T16:00:01.194Z,1027.16
2023-05-20T16:10:01.250Z,1027.11
2023-05-20T16:20:01.263Z,1026.93
2023-05-20T16:30:01.179Z,1026.73
2023-05-20T16:40:01.143Z,1026.78
2023-05-20T16:50:01.151Z,1026.73
2023-05-20T17:00:01.207Z,1026.64
2023-05-20T17:10:01.192Z,1026.67
2023-05-20T17:20:01.184Z,1026.68
2023-05-20T17:30:01.204Z,1026.56
2023-05-20T17:40:01.130Z,1026.60
2023-05-20T17:50:01.235Z,1026.58
2023-05-20T18:00:01.373Z,1026.68
2023-05-20T18:10:01.224Z,1026.70
2023-05-20T18:20:01.170Z,1026.69
2023-05-20T18:30:01.276Z,1026.70
2023-05-20T18:40:01.102Z,1026.62
2023-05-20T18:50:01.558Z,1026.75
2023-05-20T19:00:01.221Z,1026.75
2023-05-20T19:10:01.199Z,1026.81
2023-05-20T19:20:01.155Z,1026.92
2023-05-20T19:30:01.220Z,1026.98
2023-05-20T19:40:01.199Z,1027.05
2023-05-20T19:50:01.180Z,1027.10
2023-05-20T20:00:01.441Z,1027.12
2023-05-20T20:10:01.283Z,1027.09
2023-05-20T20:20:01.348Z,1027.04
2023-05-20T20:30:01.184Z,1027.04
2023-05-20T20:40:01.185Z,1026.97
2023-05-20T20:50:01.230Z,1026.92
2023-05-20T21:00:01.218Z,1026.90
2023-05-20T21:10:01.221Z,1026.87
2023-05-20T21:20:01.147Z,1026.72
2023-05-20T21:30:01.204Z,1026.57
2023-05-20T21:40:01.168Z,1026.45
2023-05-20T21:50:01.243Z,1026.39
2023-05-20T22:00:01.217Z,1026.28
2023-05-20T22:10:01.142Z,1026.35
2023-05-20T22:20:01.196Z,1026.29
2023-05-20T22:30:01.164Z,1026.28
2023-05-20T22:40:01.172Z,1026.22
2023-05-20T22:50:01.271Z,1026.19
2023-05-20T23:00:01.158Z,1026.25
2023-05-20T23:10:01.233Z,1026.19
2023-05-20T23:20:01.159Z,1026.08
2023-05-20T23:30:01.237Z,1025.97
2023-05-20T23:40:01.568Z,1025.91
2023-05-20T23:50:01.244Z,1025.85
